createdAt,value
2018-04-25T00:00:41.717Z,10.66
2018-04-25T00:06:32.617Z,10.38
2018-04-25T00:12:23.518Z,11.23
2018-04-25T00:18:14.393Z,14.66
2018-04-25T00:24:05.240Z,11.91
2018-04-25T00:29:56.205Z,12.14
2018-04-25T00:35:47.051Z,9.75
2018-04-25T00:41:37.923Z,11.6
2018-04-25T00:47:28.878Z,9.61
2018-04-25T00:53:19.736Z,10.25
2018-04-25T00:59:10.614Z,10.77
2018-04-25T01:05:01.497Z,13.81
2018-04-25T01:10:52.386Z,9.59
2018-04-25T01:16:43.257Z,12.06
2018-04-25T01:22:34.141Z,14.75
2018-04-25T01:28:25.027Z,10.65
2018-04-25T01:34:15.903Z,16.64
2018-04-25T01:40:06.765Z,15.3
2018-04-25T01:45:57.640Z,10.24
2018-04-25T01:51:48.582Z,11.33
2018-04-25T01:57:39.433Z,12.22
2018-04-25T02:03:30.373Z,11.44
2018-04-25T02:09:21.190Z,9.72
2018-04-25T02:15:12.072Z,10.35
2018-04-25T02:21:02.933Z,16.34
2018-04-25T02:26:53.908Z,11.5
2018-04-25T02:32:44.755Z,11.52
2018-04-25T02:38:35.585Z,8.72
2018-04-25T02:44:26.511Z,13.06
2018-04-25T02:50:17.380Z,12.39
2018-04-25T02:56:08.240Z,10.89
2018-04-25T03:01:59.119Z,15.89
2018-04-25T03:07:50.052Z,14.79
2018-04-25T03:13:40.906Z,8.05
2018-04-25T03:19:31.762Z,13.96
2018-04-25T03:25:22.661Z,17.39
2018-04-25T03:31:13.528Z,11.18
2018-04-25T03:37:04.422Z,18.05
2018-04-25T03:42:55.258Z,15.36
2018-04-25T03:48:46.150Z,11.87
2018-04-25T03:54:37.106Z,15.22
2018-04-25T04:00:27.942Z,16.88
2018-04-25T04:06:18.778Z,13.45
2018-04-25T04:12:09.689Z,17.23
2018-04-25T04:18:00.543Z,19.81
2018-04-25T04:23:51.414Z,16.46
2018-04-25T04:29:42.297Z,12.55
2018-04-25T04:35:33.158Z,13.25
2018-04-25T04:41:24.072Z,17.32
2018-04-25T04:47:15.002Z,18.37
2018-04-25T04:53:05.784Z,25.94
2018-04-25T04:58:56.666Z,16.11
2018-04-25T05:04:47.585Z,16.11
2018-04-25T05:10:38.479Z,19.51
2018-04-25T05:16:29.301Z,19.78
2018-04-25T05:22:20.188Z,23.7
2018-04-25T05:28:11.027Z,21.89
2018-04-25T05:34:01.898Z,19.48
2018-04-25T05:39:52.823Z,24.79
2018-04-25T05:45:43.659Z,22.03
2018-04-25T05:51:34.552Z,27.2
2018-04-25T05:57:25.413Z,24.1
2018-04-25T06:03:16.377Z,32.05
2018-04-25T06:09:07.181Z,42.38
2018-04-25T06:14:58.023Z,32.7
2018-04-25T06:20:49.007Z,34.88
2018-04-25T06:26:39.819Z,33.77
2018-04-25T06:32:30.709Z,39.09
2018-04-25T06:38:21.616Z,44.05
2018-04-25T06:44:12.426Z,44.12
2018-04-25T06:50:03.293Z,49.65
2018-04-25T06:55:54.295Z,61.5
2018-04-25T07:01:45.172Z,54.22
2018-04-25T07:07:36.063Z,45.29
2018-04-25T07:13:26.992Z,41.39
2018-04-25T07:19:17.849Z,35.11
2018-04-25T07:25:08.747Z,22.44
2018-04-25T07:30:59.585Z,24.08
2018-04-25T07:36:50.483Z,22.55
2018-04-25T07:42:41.349Z,21.71
2018-04-25T07:48:32.195Z,28.17
2018-04-25T07:54:23.078Z,28.95
2018-04-25T08:00:13.990Z,26.84
2018-04-25T08:06:04.948Z,34.31
2018-04-25T08:11:55.715Z,35.35
2018-04-25T08:17:46.597Z,36.09
2018-04-25T08:23:37.535Z,42.61
2018-04-25T08:29:28.401Z,49.01
2018-04-25T08:35:19.295Z,49.49
2018-04-25T08:41:10.167Z,45.86
2018-04-25T08:47:01.080Z,34.58
2018-04-25T08:52:51.963Z,41.26
2018-04-25T08:58:42.809Z,36.7
2018-04-25T09:04:33.684Z,36
2018-04-25T09:10:24.571Z,26.34
2018-04-25T09:16:15.470Z,33.26
2018-04-25T09:22:06.356Z,26.87
2018-04-25T09:27:57.254Z,25.61
2018-04-25T09:33:48.143Z,23.74
2018-04-25T09:39:39.026Z,28.08
2018-04-25T09:45:29.879Z,31.08
2018-04-25T09:51:20.785Z,30.92
2018-04-25T09:57:11.688Z,19.41
2018-04-25T10:03:02.573Z,20.67
2018-04-25T10:08:53.521Z,28.81
2018-04-25T10:14:44.404Z,19.86
2018-04-25T10:20:35.246Z,18.77
2018-04-25T10:26:26.151Z,17.12
2018-04-25T10:32:17.117Z,20.75
2018-04-25T10:38:07.919Z,14.08
2018-04-25T10:43:58.891Z,16.99
2018-04-25T10:49:49.744Z,12.8
2018-04-25T10:55:40.641Z,16.17
2018-04-25T11:01:31.569Z,13.48
2018-04-25T11:07:22.580Z,11.59
2018-04-25T11:13:13.405Z,16.95
2018-04-25T11:19:04.418Z,13.4
2018-04-25T11:24:55.211Z,12.72
2018-04-25T11:30:46.147Z,14.76
2018-04-25T11:36:37.105Z,13.94
2018-04-25T11:42:28.005Z,9.52
2018-04-25T11:48:18.919Z,16.09
2018-04-25T11:54:09.852Z,8.23
2018-04-25T12:00:00.779Z,9.88
2018-04-25T12:05:51.755Z,10.84
2018-04-25T12:11:42.666Z,9.41
2018-04-25T12:17:33.646Z,10.49
2018-04-25T12:23:24.570Z,7.72
2018-04-25T12:29:15.502Z,9.9
2018-04-25T12:35:06.457Z,9.94
2018-04-25T12:40:57.442Z,6.69
2018-04-25T12:46:48.418Z,7.71
2018-04-25T12:52:39.362Z,8.36
2018-04-25T12:58:30.299Z,10.47
2018-04-25T13:04:21.227Z,9.14
2018-04-25T13:10:12.281Z,12.73
2018-04-25T13:16:03.224Z,9.41
2018-04-25T13:21:54.174Z,7.12
2018-04-25T13:27:45.092Z,7.21
2018-04-25T13:33:36.082Z,5.78
2018-04-25T13:39:27.028Z,6.04
2018-04-25T13:45:17.948Z,8.26
2018-04-25T13:51:09.016Z,6.87
2018-04-25T13:56:59.878Z,7.79
2018-04-25T14:02:50.905Z,8.09
2018-04-25T14:08:41.763Z,10.11
2018-04-25T14:14:32.777Z,8.84
2018-04-25T14:20:23.715Z,8.14
2018-04-25T14:26:14.643Z,8.5
2018-04-25T14:32:05.622Z,9.23
2018-04-25T14:37:56.577Z,9.15
2018-04-25T14:43:47.455Z,6.54
2018-04-25T14:49:38.455Z,9.26
2018-04-25T14:55:29.377Z,8.71
2018-04-25T15:01:20.296Z,8.23
2018-04-25T15:07:11.218Z,12.19
2018-04-25T15:13:02.180Z,7.95
2018-04-25T15:18:53.081Z,10.62
2018-04-25T15:24:44.021Z,5.62
2018-04-25T15:30:35.015Z,10.56
2018-04-25T15:36:25.896Z,11.71
2018-04-25T15:42:16.834Z,10.11
2018-04-25T15:48:07.750Z,7.34
2018-04-25T15:53:58.659Z,8.45
2018-04-25T15:59:49.618Z,13.81
2018-04-25T16:05:40.535Z,7.05
2018-04-25T16:11:31.500Z,9.52
2018-04-25T16:17:22.413Z,12.43
2018-04-25T16:23:13.322Z,13.63
2018-04-25T16:29:04.331Z,9.55
2018-04-25T16:34:55.196Z,7.57
2018-04-25T16:40:46.193Z,9.33
2018-04-25T16:46:37.083Z,8.7
2018-04-25T16:52:28.003Z,7.9
2018-04-25T16:58:18.966Z,9.4
2018-04-25T17:04:09.844Z,7.69
2018-04-25T17:10:00.727Z,6.96
2018-04-25T17:15:51.697Z,8.82
2018-04-25T17:21:42.621Z,11.1
2018-04-25T17:27:33.508Z,10.51
2018-04-25T17:33:24.438Z,10.18
2018-04-25T17:39:15.380Z,10.38
2018-04-25T17:45:06.277Z,11.4
2018-04-25T17:50:57.251Z,11.14
2018-04-25T17:56:48.177Z,9.05
2018-04-25T18:02:39.090Z,7.26
2018-04-25T18:08:29.965Z,7.62
2018-04-25T18:14:20.936Z,9.68
2018-04-25T18:20:11.801Z,9.64
2018-04-25T18:26:02.714Z,9.35
2018-04-25T18:31:53.603Z,9.02
2018-04-25T18:37:44.553Z,11.42
2018-04-25T18:43:35.472Z,12.65
2018-04-25T18:49:26.455Z,10.84
2018-04-25T18:55:17.279Z,11.45
2018-04-25T19:01:08.203Z,13.68
2018-04-25T19:06:59.073Z,10.43
2018-04-25T19:12:49.986Z,9.76
2018-04-25T19:18:40.866Z,14.65
2018-04-25T19:24:31.775Z,10.81
2018-04-25T19:30:22.712Z,13.41
2018-04-25T19:36:13.618Z,12.02
2018-04-25T19:42:04.527Z,11.6
2018-04-25T19:47:55.426Z,12.01
2018-04-25T19:53:46.309Z,15.62
2018-04-25T19:59:37.221Z,18.08
2018-04-25T20:05:28.116Z,9.83
2018-04-25T20:11:19.017Z,9.85
2018-04-25T20:17:09.937Z,11.34
2018-04-25T20:23:00.855Z,9.72
2018-04-25T20:28:51.736Z,13.86
2018-04-25T20:34:42.664Z,12.22
2018-04-25T20:40:33.575Z,12.41
2018-04-25T20:46:24.456Z,9.13
2018-04-25T20:52:15.352Z,12
2018-04-25T20:58:06.260Z,13.56
2018-04-25T21:03:57.195Z,12.81
2018-04-25T21:09:48.064Z,11.74
2018-04-25T21:15:38.989Z,12.41
2018-04-25T21:21:29.817Z,10.64
2018-04-25T21:27:20.769Z,10.36
2018-04-25T21:33:11.630Z,11.31
2018-04-25T21:39:02.537Z,10.74
2018-04-25T21:44:53.423Z,14.65
2018-04-25T21:50:44.337Z,12
2018-04-25T21:56:35.201Z,10.37
2018-04-25T22:02:26.207Z,9.87
2018-04-25T22:08:17.073Z,12.37
2018-04-25T22:14:07.867Z,9.74
2018-04-25T22:19:58.760Z,9.79
2018-04-25T22:25:49.727Z,13.44
2018-04-25T22:31:40.573Z,14.96
2018-04-25T22:37:31.417Z,10.64
2018-04-25T22:43:22.397Z,12.24
2018-04-25T22:49:13.301Z,14.53
2018-04-25T22:55:04.120Z,16.06
2018-04-25T23:00:55.015Z,12.48
2018-04-25T23:06:45.893Z,11
2018-04-25T23:12:36.762Z,15.13
2018-04-25T23:18:27.671Z,15.64
2018-04-25T23:24:18.574Z,11.74
2018-04-25T23:31:05.747Z,13.8
2018-04-25T23:36:56.653Z,12.77
2018-04-25T23:42:47.512Z,8.54
2018-04-25T23:48:38.426Z,12
2018-04-25T23:54:29.259Z,16.99
